sensor_id;sensor_type;location;lat;lon;timestamp;temperature;humidity
3705;DHT22;1868;48.918;9.438;2022-07-23T00:01:44;25.60;71.10
3705;DHT22;1868;48.918;9.438;2022-07-23T00:04:14;25.70;70.00
3705;DHT22;1868;48.918;9.438;2022-07-23T00:06:42;25.70;69.20
3705;DHT22;1868;48.918;9.438;2022-07-23T00:09:10;25.70;69.10
3705;DHT22;1868;48.918;9.438;2022-07-23T00:11:40;25.70;69.10
3705;DHT22;1868;48.918;9.438;2022-07-23T00:14:08;25.60;68.90
3705;DHT22;1868;48.918;9.438;2022-07-23T00:16:37;25.60;67.60
3705;DHT22;1868;48.918;9.438;2022-07-23T00:19:05;25.60;68.30
3705;DHT22;1868;48.918;9.438;2022-07-23T00:21:33;25.70;67.90
3705;DHT22;1868;48.918;9.438;2022-07-23T00:24:03;25.60;68.10
3705;DHT22;1868;48.918;9.438;2022-07-23T00:26:32;25.60;67.70
3705;DHT22;1868;48.918;9.438;2022-07-23T00:29:03;25.60;67.90
3705;DHT22;1868;48.918;9.438;2022-07-23T00:31:31;25.60;68.70
3705;DHT22;1868;48.918;9.438;2022-07-23T00:33:59;25.50;68.50
3705;DHT22;1868;48.918;9.438;2022-07-23T00:36:28;25.50;68.90
3705;DHT22;1868;48.918;9.438;2022-07-23T00:38:58;25.40;69.60
3705;DHT22;1868;48.918;9.438;2022-07-23T00:41:28;25.40;70.00
3705;DHT22;1868;48.918;9.438;2022-07-23T00:44:14;25.30;70.00
3705;DHT22;1868;48.918;9.438;2022-07-23T00:46:45;25.30;70.00
3705;DHT22;1868;48.918;9.438;2022-07-23T00:49:14;25.30;70.40
3705;DHT22;1868;48.918;9.438;2022-07-23T00:51:43;25.30;70.00
3705;DHT22;1868;48.918;9.438;2022-07-23T00:54:11;25.20;70.40
3705;DHT22;1868;48.918;9.438;2022-07-23T00:56:41;25.20;70.20
3705;DHT22;1868;48.918;9.438;2022-07-23T00:59:12;25.20;69.60
3705;DHT22;1868;48.918;9.438;2022-07-23T01:01:41;25.10;70.90
3705;DHT22;1868;48.918;9.438;2022-07-23T01:04:10;25.10;72.40
3705;DHT22;1868;48.918;9.438;2022-07-23T01:06:39;25.00;73.30
3705;DHT22;1868;48.918;9.438;2022-07-23T01:09:07;25.00;74.30
3705;DHT22;1868;48.918;9.438;2022-07-23T01:11:37;24.80;74.60
3705;DHT22;1868;48.918;9.438;2022-07-23T01:14:12;24.80;74.80
3705;DHT22;1868;48.918;9.438;2022-07-23T01:16:42;24.70;75.00
3705;DHT22;1868;48.918;9.438;2022-07-23T01:19:13;24.60;75.00
3705;DHT22;1868;48.918;9.438;2022-07-23T01:21:43;24.50;75.80
3705;DHT22;1868;48.918;9.438;2022-07-23T01:24:14;24.50;75.90
3705;DHT22;1868;48.918;9.438;2022-07-23T01:26:52;24.40;75.90
3705;DHT22;1868;48.918;9.438;2022-07-23T01:29:25;24.30;76.10
3705;DHT22;1868;48.918;9.438;2022-07-23T01:31:54;24.30;76.10
3705;DHT22;1868;48.918;9.438;2022-07-23T01:34:23;24.30;76.10
3705;DHT22;1868;48.918;9.438;2022-07-23T01:36:51;24.20;77.10
3705;DHT22;1868;48.918;9.438;2022-07-23T01:39:21;24.20;76.70
3705;DHT22;1868;48.918;9.438;2022-07-23T01:41:52;24.20;76.70
3705;DHT22;1868;48.918;9.438;2022-07-23T01:44:21;24.20;76.90
3705;DHT22;1868;48.918;9.438;2022-07-23T01:46:50;24.10;76.90
3705;DHT22;1868;48.918;9.438;2022-07-23T01:49:20;24.20;77.40
3705;DHT22;1868;48.918;9.438;2022-07-23T01:51:57;24.10;77.40
3705;DHT22;1868;48.918;9.438;2022-07-23T01:54:43;24.10;77.60
3705;DHT22;1868;48.918;9.438;2022-07-23T01:57:49;24.10;78.70
3705;DHT22;1868;48.918;9.438;2022-07-23T02:00:21;24.00;78.70
3705;DHT22;1868;48.918;9.438;2022-07-23T02:02:51;24.00;78.70
3705;DHT22;1868;48.918;9.438;2022-07-23T02:05:22;24.00;78.60
3705;DHT22;1868;48.918;9.438;2022-07-23T02:07:50;24.00;78.70
3705;DHT22;1868;48.918;9.438;2022-07-23T02:10:20;24.00;78.60
3705;DHT22;1868;48.918;9.438;2022-07-23T02:12:49;23.90;78.90
3705;DHT22;1868;48.918;9.438;2022-07-23T02:15:18;23.90;78.60
3705;DHT22;1868;48.918;9.438;2022-07-23T02:17:46;23.90;78.60
3705;DHT22;1868;48.918;9.438;2022-07-23T02:20:14;23.80;78.70
3705;DHT22;1868;48.918;9.438;2022-07-23T02:22:43;23.80;79.30
3705;DHT22;1868;48.918;9.438;2022-07-23T02:25:11;23.70;79.30
3705;DHT22;1868;48.918;9.438;2022-07-23T02:27:41;23.70;79.50
3705;DHT22;1868;48.918;9.438;2022-07-23T02:30:11;23.60;79.70
3705;DHT22;1868;48.918;9.438;2022-07-23T02:32:39;23.60;80.80
3705;DHT22;1868;48.918;9.438;2022-07-23T02:35:10;23.50;81.20
3705;DHT22;1868;48.918;9.438;2022-07-23T02:37:38;23.50;80.80
3705;DHT22;1868;48.918;9.438;2022-07-23T02:40:08;23.40;80.80
3705;DHT22;1868;48.918;9.438;2022-07-23T02:42:41;23.40;81.20
3705;DHT22;1868;48.918;9.438;2022-07-23T02:45:10;23.40;81.00
3705;DHT22;1868;48.918;9.438;2022-07-23T02:47:39;23.40;81.20
3705;DHT22;1868;48.918;9.438;2022-07-23T02:50:09;23.30;81.40
3705;DHT22;1868;48.918;9.438;2022-07-23T02:52:38;23.30;81.50
3705;DHT22;1868;48.918;9.438;2022-07-23T02:55:07;23.20;82.10
3705;DHT22;1868;48.918;9.438;2022-07-23T02:57:42;23.20;81.70
3705;DHT22;1868;48.918;9.438;2022-07-23T03:00:12;23.20;81.50
3705;DHT22;1868;48.918;9.438;2022-07-23T03:02:40;23.10;81.70
3705;DHT22;1868;48.918;9.438;2022-07-23T03:05:09;23.10;82.30
3705;DHT22;1868;48.918;9.438;2022-07-23T03:07:38;23.10;82.30
3705;DHT22;1868;48.918;9.438;2022-07-23T03:10:07;23.00;82.30
3705;DHT22;1868;48.918;9.438;2022-07-23T03:12:36;23.00;82.50
3705;DHT22;1868;48.918;9.438;2022-07-23T03:15:07;23.00;83.00
3705;DHT22;1868;48.918;9.438;2022-07-23T03:17:37;23.00;83.00
3705;DHT22;1868;48.918;9.438;2022-07-23T03:20:07;22.90;83.20
3705;DHT22;1868;48.918;9.438;2022-07-23T03:22:38;22.90;84.00
3705;DHT22;1868;48.918;9.438;2022-07-23T03:25:07;22.90;84.00
3705;DHT22;1868;48.918;9.438;2022-07-23T03:27:37;22.90;84.10
3705;DHT22;1868;48.918;9.438;2022-07-23T03:30:08;22.90;84.10
3705;DHT22;1868;48.918;9.438;2022-07-23T03:32:36;22.90;84.70
3705;DHT22;1868;48.918;9.438;2022-07-23T03:35:06;22.80;85.80
3705;DHT22;1868;48.918;9.438;2022-07-23T03:37:40;22.80;85.60
3705;DHT22;1868;48.918;9.438;2022-07-23T03:40:12;22.80;86.00
3705;DHT22;1868;48.918;9.438;2022-07-23T03:42:41;22.80;86.00
3705;DHT22;1868;48.918;9.438;2022-07-23T03:45:11;22.80;85.60
3705;DHT22;1868;48.918;9.438;2022-07-23T03:47:39;22.80;85.80
3705;DHT22;1868;48.918;9.438;2022-07-23T03:50:08;22.80;86.40
3705;DHT22;1868;48.918;9.438;2022-07-23T03:52:37;22.80;86.40
3705;DHT22;1868;48.918;9.438;2022-07-23T03:55:06;22.80;86.60
3705;DHT22;1868;48.918;9.438;2022-07-23T03:57:35;22.80;86.40
3705;DHT22;1868;48.918;9.438;2022-07-23T04:00:04;22.70;87.30
3705;DHT22;1868;48.918;9.438;2022-07-23T04:02:40;22.70;86.90
3705;DHT22;1868;48.918;9.438;2022-07-23T04:05:11;22.70;87.50
3705;DHT22;1868;48.918;9.438;2022-07-23T04:07:42;22.70;87.10
3705;DHT22;1868;48.918;9.438;2022-07-23T04:10:10;22.70;87.50
3705;DHT22;1868;48.918;9.438;2022-07-23T04:12:41;22.70;87.50
3705;DHT22;1868;48.918;9.438;2022-07-23T04:15:10;22.70;87.30
3705;DHT22;1868;48.918;9.438;2022-07-23T04:17:40;22.60;87.70
3705;DHT22;1868;48.918;9.438;2022-07-23T04:20:09;22.60;87.50
3705;DHT22;1868;48.918;9.438;2022-07-23T04:22:45;22.60;87.90
3705;DHT22;1868;48.918;9.438;2022-07-23T04:25:14;22.60;87.90
3705;DHT22;1868;48.918;9.438;2022-07-23T04:27:44;22.60;88.40
3705;DHT22;1868;48.918;9.438;2022-07-23T04:30:13;22.60;88.20
3705;DHT22;1868;48.918;9.438;2022-07-23T04:32:43;22.70;88.10
3705;DHT22;1868;48.918;9.438;2022-07-23T04:35:22;22.70;88.10
3705;DHT22;1868;48.918;9.438;2022-07-23T04:37:55;22.80;87.90
3705;DHT22;1868;48.918;9.438;2022-07-23T04:40:24;22.80;88.40
3705;DHT22;1868;48.918;9.438;2022-07-23T04:42:52;22.80;89.20
3705;DHT22;1868;48.918;9.438;2022-07-23T04:45:21;22.80;89.70
3705;DHT22;1868;48.918;9.438;2022-07-23T04:47:51;22.90;89.00
3705;DHT22;1868;48.918;9.438;2022-07-23T04:50:20;22.90;88.40
3705;DHT22;1868;48.918;9.438;2022-07-23T04:52:53;22.90;87.90
3705;DHT22;1868;48.918;9.438;2022-07-23T04:55:22;23.00;87.30
3705;DHT22;1868;48.918;9.438;2022-07-23T04:57:50;23.00;87.50
3705;DHT22;1868;48.918;9.438;2022-07-23T05:00:18;23.10;87.50
3705;DHT22;1868;48.918;9.438;2022-07-23T05:02:47;23.10;87.30
3705;DHT22;1868;48.918;9.438;2022-07-23T05:05:17;23.20;87.30
3705;DHT22;1868;48.918;9.438;2022-07-23T05:07:45;23.20;87.50
3705;DHT22;1868;48.918;9.438;2022-07-23T05:10:14;23.20;87.70
3705;DHT22;1868;48.918;9.438;2022-07-23T05:12:42;23.30;88.40
3705;DHT22;1868;48.918;9.438;2022-07-23T05:15:11;23.30;87.90
3705;DHT22;1868;48.918;9.438;2022-07-23T05:17:39;23.40;88.60
3705;DHT22;1868;48.918;9.438;2022-07-23T05:20:12;23.50;90.20
3705;DHT22;1868;48.918;9.438;2022-07-23T05:22:42;23.60;90.80
3705;DHT22;1868;48.918;9.438;2022-07-23T05:25:11;23.60;90.90
3705;DHT22;1868;48.918;9.438;2022-07-23T05:27:40;23.60;90.50
3705;DHT22;1868;48.918;9.438;2022-07-23T05:30:09;23.70;90.10
3705;DHT22;1868;48.918;9.438;2022-07-23T05:32:41;23.80;90.60
3705;DHT22;1868;48.918;9.438;2022-07-23T05:35:15;23.90;90.50
3705;DHT22;1868;48.918;9.438;2022-07-23T05:37:58;24.00;89.20
3705;DHT22;1868;48.918;9.438;2022-07-23T05:40:27;24.30;87.10
3705;DHT22;1868;48.918;9.438;2022-07-23T05:42:56;24.50;86.20
3705;DHT22;1868;48.918;9.438;2022-07-23T05:45:25;24.60;86.20
3705;DHT22;1868;48.918;9.438;2022-07-23T05:47:55;24.60;86.00
3705;DHT22;1868;48.918;9.438;2022-07-23T05:50:28;24.60;86.40
3705;DHT22;1868;48.918;9.438;2022-07-23T05:53:05;24.50;86.60
3705;DHT22;1868;48.918;9.438;2022-07-23T05:55:52;24.40;88.60
3705;DHT22;1868;48.918;9.438;2022-07-23T05:58:21;24.40;88.10
3705;DHT22;1868;48.918;9.438;2022-07-23T06:00:49;24.30;89.20
3705;DHT22;1868;48.918;9.438;2022-07-23T06:03:18;24.30;88.60
3705;DHT22;1868;48.918;9.438;2022-07-23T06:05:46;24.30;88.10
3705;DHT22;1868;48.918;9.438;2022-07-23T06:08:17;24.40;87.70
3705;DHT22;1868;48.918;9.438;2022-07-23T06:10:46;24.50;87.70
3705;DHT22;1868;48.918;9.438;2022-07-23T06:13:14;24.50;87.90
3705;DHT22;1868;48.918;9.438;2022-07-23T06:15:45;24.60;87.70
3705;DHT22;1868;48.918;9.438;2022-07-23T06:18:14;24.60;87.90
3705;DHT22;1868;48.918;9.438;2022-07-23T06:20:42;24.60;87.50
3705;DHT22;1868;48.918;9.438;2022-07-23T06:23:17;24.60;86.80
3705;DHT22;1868;48.918;9.438;2022-07-23T06:25:47;24.70;86.80
3705;DHT22;1868;48.918;9.438;2022-07-23T06:28:15;24.70;86.00
3705;DHT22;1868;48.918;9.438;2022-07-23T06:30:43;24.70;86.00
3705;DHT22;1868;48.918;9.438;2022-07-23T06:33:12;24.80;85.30
3705;DHT22;1868;48.918;9.438;2022-07-23T06:35:40;24.70;84.70
3705;DHT22;1868;48.918;9.438;2022-07-23T06:38:09;24.70;85.30
3705;DHT22;1868;48.918;9.438;2022-07-23T06:40:39;24.80;84.70
3705;DHT22;1868;48.918;9.438;2022-07-23T06:43:07;24.80;85.50
3705;DHT22;1868;48.918;9.438;2022-07-23T06:45:37;25.00;84.00
3705;DHT22;1868;48.918;9.438;2022-07-23T06:48:05;25.10;83.80
3705;DHT22;1868;48.918;9.438;2022-07-23T06:50:33;25.20;82.80
3705;DHT22;1868;48.918;9.438;2022-07-23T06:53:02;25.40;82.70
3705;DHT22;1868;48.918;9.438;2022-07-23T06:55:30;25.60;81.40
3705;DHT22;1868;48.918;9.438;2022-07-23T06:58:00;25.70;80.40
3705;DHT22;1868;48.918;9.438;2022-07-23T07:00:29;26.00;80.20
3705;DHT22;1868;48.918;9.438;2022-07-23T07:02:58;26.10;79.10
3705;DHT22;1868;48.918;9.438;2022-07-23T07:05:27;26.20;79.50
3705;DHT22;1868;48.918;9.438;2022-07-23T07:07:55;26.20;78.20
3705;DHT22;1868;48.918;9.438;2022-07-23T07:10:24;26.10;79.30
3705;DHT22;1868;48.918;9.438;2022-07-23T07:12:54;25.90;80.60
3705;DHT22;1868;48.918;9.438;2022-07-23T07:15:24;25.70;80.60
3705;DHT22;1868;48.918;9.438;2022-07-23T07:17:53;25.60;82.10
3705;DHT22;1868;48.918;9.438;2022-07-23T07:20:22;25.40;82.10
3705;DHT22;1868;48.918;9.438;2022-07-23T07:22:51;25.20;82.70
3705;DHT22;1868;48.918;9.438;2022-07-23T07:25:19;25.10;83.00
3705;DHT22;1868;48.918;9.438;2022-07-23T07:27:48;24.90;85.30
3705;DHT22;1868;48.918;9.438;2022-07-23T07:30:19;24.70;86.80
3705;DHT22;1868;48.918;9.438;2022-07-23T07:32:49;24.60;87.90
3705;DHT22;1868;48.918;9.438;2022-07-23T07:35:23;24.60;88.20
3705;DHT22;1868;48.918;9.438;2022-07-23T07:37:51;24.70;88.20
3705;DHT22;1868;48.918;9.438;2022-07-23T07:40:20;24.70;88.20
3705;DHT22;1868;48.918;9.438;2022-07-23T07:42:50;24.70;88.10
3705;DHT22;1868;48.918;9.438;2022-07-23T07:45:20;24.80;88.10
3705;DHT22;1868;48.918;9.438;2022-07-23T07:47:52;24.80;88.80
3705;DHT22;1868;48.918;9.438;2022-07-23T07:50:21;24.80;89.20
3705;DHT22;1868;48.918;9.438;2022-07-23T07:52:50;24.80;88.60
3705;DHT22;1868;48.918;9.438;2022-07-23T07:55:18;24.70;89.00
3705;DHT22;1868;48.918;9.438;2022-07-23T07:57:49;24.60;89.60
3705;DHT22;1868;48.918;9.438;2022-07-23T08:00:18;24.60;90.20
3705;DHT22;1868;48.918;9.438;2022-07-23T08:02:48;24.40;91.70
3705;DHT22;1868;48.918;9.438;2022-07-23T08:05:20;24.30;91.60
3705;DHT22;1868;48.918;9.438;2022-07-23T08:07:54;24.20;92.10
3705;DHT22;1868;48.918;9.438;2022-07-23T08:10:23;24.10;93.60
3705;DHT22;1868;48.918;9.438;2022-07-23T08:12:53;24.10;93.40
3705;DHT22;1868;48.918;9.438;2022-07-23T08:15:25;24.10;93.30
3705;DHT22;1868;48.918;9.438;2022-07-23T08:17:56;24.10;93.60
3705;DHT22;1868;48.918;9.438;2022-07-23T08:20:26;24.10;93.30
3705;DHT22;1868;48.918;9.438;2022-07-23T08:22:56;24.10;92.70
3705;DHT22;1868;48.918;9.438;2022-07-23T08:25:26;24.00;92.60
3705;DHT22;1868;48.918;9.438;2022-07-23T08:27:56;23.90;92.40
3705;DHT22;1868;48.918;9.438;2022-07-23T08:30:25;23.70;92.70
3705;DHT22;1868;48.918;9.438;2022-07-23T08:32:57;23.60;93.40
3705;DHT22;1868;48.918;9.438;2022-07-23T08:35:29;23.40;94.80
3705;DHT22;1868;48.918;9.438;2022-07-23T08:37:59;23.30;95.00
3705;DHT22;1868;48.918;9.438;2022-07-23T08:40:30;23.40;94.30
3705;DHT22;1868;48.918;9.438;2022-07-23T08:43:07;23.40;94.20
3705;DHT22;1868;48.918;9.438;2022-07-23T08:45:38;23.50;93.90
3705;DHT22;1868;48.918;9.438;2022-07-23T08:48:12;23.40;94.30
3705;DHT22;1868;48.918;9.438;2022-07-23T08:50:45;23.40;93.70
3705;DHT22;1868;48.918;9.438;2022-07-23T08:53:16;23.40;93.50
3705;DHT22;1868;48.918;9.438;2022-07-23T08:55:46;23.40;93.20
3705;DHT22;1868;48.918;9.438;2022-07-23T08:58:16;23.50;93.60
3705;DHT22;1868;48.918;9.438;2022-07-23T09:00:51;23.50;92.90
3705;DHT22;1868;48.918;9.438;2022-07-23T09:03:22;23.60;92.60
3705;DHT22;1868;48.918;9.438;2022-07-23T09:05:52;23.70;93.30
3705;DHT22;1868;48.918;9.438;2022-07-23T09:08:24;23.90;93.20
3705;DHT22;1868;48.918;9.438;2022-07-23T09:10:55;24.40;92.20
3705;DHT22;1868;48.918;9.438;2022-07-23T09:13:33;24.90;91.50
3705;DHT22;1868;48.918;9.438;2022-07-23T09:16:05;25.40;90.40
3705;DHT22;1868;48.918;9.438;2022-07-23T09:18:39;26.00;86.00
3705;DHT22;1868;48.918;9.438;2022-07-23T09:21:22;26.30;78.60
3705;DHT22;1868;48.918;9.438;2022-07-23T09:23:57;26.50;72.60
3705;DHT22;1868;48.918;9.438;2022-07-23T09:26:32;26.80;76.30
3705;DHT22;1868;48.918;9.438;2022-07-23T09:29:12;27.30;75.40
3705;DHT22;1868;48.918;9.438;2022-07-23T09:31:46;27.80;73.00
3705;DHT22;1868;48.918;9.438;2022-07-23T09:34:19;28.20;73.90
3705;DHT22;1868;48.918;9.438;2022-07-23T09:36:52;28.50;73.00
3705;DHT22;1868;48.918;9.438;2022-07-23T09:39:26;28.90;70.90
3705;DHT22;1868;48.918;9.438;2022-07-23T09:41:56;29.40;67.70
3705;DHT22;1868;48.918;9.438;2022-07-23T09:44:25;29.80;65.90
3705;DHT22;1868;48.918;9.438;2022-07-23T09:46:59;29.80;59.90
3705;DHT22;1868;48.918;9.438;2022-07-23T09:49:30;29.80;63.10
3705;DHT22;1868;48.918;9.438;2022-07-23T09:52:00;30.00;60.90
3705;DHT22;1868;48.918;9.438;2022-07-23T09:54:34;30.20;59.90
3705;DHT22;1868;48.918;9.438;2022-07-23T09:57:05;30.20;59.50
3705;DHT22;1868;48.918;9.438;2022-07-23T09:59:43;30.30;60.30
3705;DHT22;1868;48.918;9.438;2022-07-23T10:02:13;30.70;59.30
3705;DHT22;1868;48.918;9.438;2022-07-23T10:05:07;31.10;57.40
3705;DHT22;1868;48.918;9.438;2022-07-23T10:08:01;31.50;56.40
3705;DHT22;1868;48.918;9.438;2022-07-23T10:10:54;31.80;55.40
3705;DHT22;1868;48.918;9.438;2022-07-23T10:13:49;32.10;54.20
3705;DHT22;1868;48.918;9.438;2022-07-23T10:16:30;32.40;54.50
3705;DHT22;1868;48.918;9.438;2022-07-23T10:19:00;32.60;52.60
3705;DHT22;1868;48.918;9.438;2022-07-23T10:21:46;32.90;52.30
3705;DHT22;1868;48.918;9.438;2022-07-23T10:24:27;33.20;51.00
3705;DHT22;1868;48.918;9.438;2022-07-23T10:27:09;33.50;50.80
3705;DHT22;1868;48.918;9.438;2022-07-23T10:29:50;33.70;50.00
3705;DHT22;1868;48.918;9.438;2022-07-23T10:32:28;34.10;48.40
3705;DHT22;1868;48.918;9.438;2022-07-23T10:35:09;34.60;47.80
3705;DHT22;1868;48.918;9.438;2022-07-23T10:37:45;34.80;44.40
3705;DHT22;1868;48.918;9.438;2022-07-23T10:40:17;35.00;45.80
3705;DHT22;1868;48.918;9.438;2022-07-23T10:42:49;35.40;43.60
3705;DHT22;1868;48.918;9.438;2022-07-23T10:45:30;35.70;43.30
3705;DHT22;1868;48.918;9.438;2022-07-23T10:48:13;36.10;41.50
3705;DHT22;1868;48.918;9.438;2022-07-23T10:50:43;36.20;41.40
3705;DHT22;1868;48.918;9.438;2022-07-23T10:53:15;36.10;41.10
3705;DHT22;1868;48.918;9.438;2022-07-23T10:55:50;36.00;39.50
3705;DHT22;1868;48.918;9.438;2022-07-23T10:58:21;36.10;40.10
3705;DHT22;1868;48.918;9.438;2022-07-23T11:00:51;36.30;41.70
3705;DHT22;1868;48.918;9.438;2022-07-23T11:03:33;36.50;41.10
3705;DHT22;1868;48.918;9.438;2022-07-23T11:06:05;36.70;38.30
3705;DHT22;1868;48.918;9.438;2022-07-23T11:08:35;36.70;37.40
3705;DHT22;1868;48.918;9.438;2022-07-23T11:11:11;37.00;37.70
3705;DHT22;1868;48.918;9.438;2022-07-23T11:13:41;37.20;37.10
3705;DHT22;1868;48.918;9.438;2022-07-23T11:16:19;37.10;36.20
3705;DHT22;1868;48.918;9.438;2022-07-23T11:19:13;37.30;36.80
3705;DHT22;1868;48.918;9.438;2022-07-23T11:21:47;37.30;37.60
3705;DHT22;1868;48.918;9.438;2022-07-23T11:24:23;37.30;35.60
3705;DHT22;1868;48.918;9.438;2022-07-23T11:27:02;37.60;36.20
3705;DHT22;1868;48.918;9.438;2022-07-23T11:29:48;37.80;38.00
3705;DHT22;1868;48.918;9.438;2022-07-23T11:32:40;38.00;35.90
3705;DHT22;1868;48.918;9.438;2022-07-23T11:35:24;38.00;33.40
3705;DHT22;1868;48.918;9.438;2022-07-23T11:38:02;37.90;35.00
3705;DHT22;1868;48.918;9.438;2022-07-23T11:40:33;37.60;33.40
3705;DHT22;1868;48.918;9.438;2022-07-23T11:43:03;37.00;35.30
3705;DHT22;1868;48.918;9.438;2022-07-23T11:45:35;37.00;34.20
3705;DHT22;1868;48.918;9.438;2022-07-23T11:48:07;37.10;35.60
3705;DHT22;1868;48.918;9.438;2022-07-23T11:50:38;37.50;35.10
3705;DHT22;1868;48.918;9.438;2022-07-23T11:53:08;37.90;34.80
3705;DHT22;1868;48.918;9.438;2022-07-23T11:55:38;38.10;33.10
3705;DHT22;1868;48.918;9.438;2022-07-23T11:58:07;38.10;33.00
3705;DHT22;1868;48.918;9.438;2022-07-23T12:00:36;38.00;33.30
3705;DHT22;1868;48.918;9.438;2022-07-23T12:03:08;38.10;33.60
3705;DHT22;1868;48.918;9.438;2022-07-23T12:05:38;37.80;33.70
3705;DHT22;1868;48.918;9.438;2022-07-23T12:08:09;37.40;34.70
3705;DHT22;1868;48.918;9.438;2022-07-23T12:10:41;36.70;36.80
3705;DHT22;1868;48.918;9.438;2022-07-23T12:13:13;35.90;37.70
3705;DHT22;1868;48.918;9.438;2022-07-23T12:15:46;35.30;39.20
3705;DHT22;1868;48.918;9.438;2022-07-23T12:18:17;35.40;40.80
3705;DHT22;1868;48.918;9.438;2022-07-23T12:20:49;35.70;39.80
3705;DHT22;1868;48.918;9.438;2022-07-23T12:23:21;35.90;39.20
3705;DHT22;1868;48.918;9.438;2022-07-23T12:25:52;36.30;38.50
3705;DHT22;1868;48.918;9.438;2022-07-23T12:28:22;36.40;38.00
3705;DHT22;1868;48.918;9.438;2022-07-23T12:30:56;36.50;38.60
3705;DHT22;1868;48.918;9.438;2022-07-23T12:33:28;36.60;39.40
3705;DHT22;1868;48.918;9.438;2022-07-23T12:36:00;36.80;38.30
3705;DHT22;1868;48.918;9.438;2022-07-23T12:38:37;37.00;37.10
3705;DHT22;1868;48.918;9.438;2022-07-23T12:41:09;36.90;36.60
3705;DHT22;1868;48.918;9.438;2022-07-23T12:43:39;36.80;36.60
3705;DHT22;1868;48.918;9.438;2022-07-23T12:46:11;36.50;36.80
3705;DHT22;1868;48.918;9.438;2022-07-23T12:48:51;36.20;39.80
3705;DHT22;1868;48.918;9.438;2022-07-23T12:51:21;35.90;40.10
3705;DHT22;1868;48.918;9.438;2022-07-23T12:53:53;35.70;41.20
3705;DHT22;1868;48.918;9.438;2022-07-23T12:56:28;35.50;41.10
3705;DHT22;1868;48.918;9.438;2022-07-23T12:58:58;35.30;41.50
3705;DHT22;1868;48.918;9.438;2022-07-23T13:01:36;34.80;41.70
3705;DHT22;1868;48.918;9.438;2022-07-23T13:04:05;34.90;43.20
3705;DHT22;1868;48.918;9.438;2022-07-23T13:06:41;35.00;42.60
3705;DHT22;1868;48.918;9.438;2022-07-23T13:09:20;34.90;42.10
3705;DHT22;1868;48.918;9.438;2022-07-23T13:11:53;34.80;41.70
3705;DHT22;1868;48.918;9.438;2022-07-23T13:14:24;34.80;42.40
3705;DHT22;1868;48.918;9.438;2022-07-23T13:16:54;34.80;42.30
3705;DHT22;1868;48.918;9.438;2022-07-23T13:19:25;34.70;43.30
3705;DHT22;1868;48.918;9.438;2022-07-23T13:21:54;34.70;42.90
3705;DHT22;1868;48.918;9.438;2022-07-23T13:24:24;34.70;42.70
3705;DHT22;1868;48.918;9.438;2022-07-23T13:26:54;34.70;43.00
3705;DHT22;1868;48.918;9.438;2022-07-23T13:29:22;34.70;43.80
3705;DHT22;1868;48.918;9.438;2022-07-23T13:31:51;34.60;42.60
3705;DHT22;1868;48.918;9.438;2022-07-23T13:34:19;34.50;42.90
3705;DHT22;1868;48.918;9.438;2022-07-23T13:36:48;34.40;43.00
3705;DHT22;1868;48.918;9.438;2022-07-23T13:39:16;34.30;44.00
3705;DHT22;1868;48.918;9.438;2022-07-23T13:41:44;34.20;43.20
3705;DHT22;1868;48.918;9.438;2022-07-23T13:44:18;34.20;44.00
3705;DHT22;1868;48.918;9.438;2022-07-23T13:46:49;34.20;44.00
3705;DHT22;1868;48.918;9.438;2022-07-23T13:49:17;34.00;42.90
3705;DHT22;1868;48.918;9.438;2022-07-23T13:51:48;33.80;44.00
3705;DHT22;1868;48.918;9.438;2022-07-23T13:54:17;33.50;44.40
3705;DHT22;1868;48.918;9.438;2022-07-23T13:56:45;33.40;44.90
3705;DHT22;1868;48.918;9.438;2022-07-23T13:59:14;33.10;45.20
3705;DHT22;1868;48.918;9.438;2022-07-23T14:01:44;32.80;45.90
3705;DHT22;1868;48.918;9.438;2022-07-23T14:04:32;32.50;46.80
3705;DHT22;1868;48.918;9.438;2022-07-23T14:07:01;32.20;47.30
3705;DHT22;1868;48.918;9.438;2022-07-23T14:09:30;32.10;48.40
3705;DHT22;1868;48.918;9.438;2022-07-23T14:12:00;32.00;48.70
3705;DHT22;1868;48.918;9.438;2022-07-23T14:14:29;32.00;48.70
3705;DHT22;1868;48.918;9.438;2022-07-23T14:16:59;32.00;48.80
3705;DHT22;1868;48.918;9.438;2022-07-23T14:19:27;32.10;49.40
3705;DHT22;1868;48.918;9.438;2022-07-23T14:21:57;32.10;49.10
3705;DHT22;1868;48.918;9.438;2022-07-23T14:24:25;32.20;48.70
3705;DHT22;1868;48.918;9.438;2022-07-23T14:26:59;32.20;49.10
3705;DHT22;1868;48.918;9.438;2022-07-23T14:29:29;32.20;48.80
3705;DHT22;1868;48.918;9.438;2022-07-23T14:31:59;32.30;49.10
3705;DHT22;1868;48.918;9.438;2022-07-23T14:34:28;32.30;48.70
3705;DHT22;1868;48.918;9.438;2022-07-23T14:36:57;32.30;49.30
3705;DHT22;1868;48.918;9.438;2022-07-23T14:39:27;32.30;48.50
3705;DHT22;1868;48.918;9.438;2022-07-23T14:41:56;32.30;47.20
3705;DHT22;1868;48.918;9.438;2022-07-23T14:44:24;32.30;45.90
3705;DHT22;1868;48.918;9.438;2022-07-23T14:46:54;32.30;47.20
3705;DHT22;1868;48.918;9.438;2022-07-23T14:49:24;32.30;47.60
3705;DHT22;1868;48.918;9.438;2022-07-23T14:52:12;32.30;47.00
3705;DHT22;1868;48.918;9.438;2022-07-23T14:54:42;32.40;46.70
3705;DHT22;1868;48.918;9.438;2022-07-23T14:57:10;32.40;46.40
3705;DHT22;1868;48.918;9.438;2022-07-23T14:59:39;32.40;46.70
3705;DHT22;1868;48.918;9.438;2022-07-23T15:02:11;32.40;46.80
3705;DHT22;1868;48.918;9.438;2022-07-23T15:04:41;32.50;47.20
3705;DHT22;1868;48.918;9.438;2022-07-23T15:07:09;32.40;45.30
3705;DHT22;1868;48.918;9.438;2022-07-23T15:09:38;32.40;45.30
3705;DHT22;1868;48.918;9.438;2022-07-23T15:12:08;32.50;45.60
3705;DHT22;1868;48.918;9.438;2022-07-23T15:14:38;32.50;45.50
3705;DHT22;1868;48.918;9.438;2022-07-23T15:17:07;32.50;45.90
3705;DHT22;1868;48.918;9.438;2022-07-23T15:19:36;32.50;45.30
3705;DHT22;1868;48.918;9.438;2022-07-23T15:22:06;32.30;46.40
3705;DHT22;1868;48.918;9.438;2022-07-23T15:24:35;32.30;46.40
3705;DHT22;1868;48.918;9.438;2022-07-23T15:27:03;32.30;45.30
3705;DHT22;1868;48.918;9.438;2022-07-23T15:29:31;32.20;46.20
3705;DHT22;1868;48.918;9.438;2022-07-23T15:31:59;32.00;47.00
3705;DHT22;1868;48.918;9.438;2022-07-23T15:34:28;31.70;46.80
3705;DHT22;1868;48.918;9.438;2022-07-23T15:36:59;31.50;47.00
3705;DHT22;1868;48.918;9.438;2022-07-23T15:39:39;31.40;47.30
3705;DHT22;1868;48.918;9.438;2022-07-23T15:42:09;31.30;47.90
3705;DHT22;1868;48.918;9.438;2022-07-23T15:44:41;31.40;47.80
3705;DHT22;1868;48.918;9.438;2022-07-23T15:47:12;31.40;48.40
3705;DHT22;1868;48.918;9.438;2022-07-23T15:49:43;31.50;47.90
3705;DHT22;1868;48.918;9.438;2022-07-23T15:52:13;31.40;48.20
3705;DHT22;1868;48.918;9.438;2022-07-23T15:54:42;31.30;48.20
3705;DHT22;1868;48.918;9.438;2022-07-23T15:57:11;31.10;49.10
3705;DHT22;1868;48.918;9.438;2022-07-23T15:59:40;31.00;49.90
3705;DHT22;1868;48.918;9.438;2022-07-23T16:02:08;31.00;49.60
3705;DHT22;1868;48.918;9.438;2022-07-23T16:04:38;30.90;50.30
3705;DHT22;1868;48.918;9.438;2022-07-23T16:07:06;30.90;50.70
3705;DHT22;1868;48.918;9.438;2022-07-23T16:09:37;30.90;50.80
3705;DHT22;1868;48.918;9.438;2022-07-23T16:12:07;30.90;50.80
3705;DHT22;1868;48.918;9.438;2022-07-23T16:14:36;30.80;51.00
3705;DHT22;1868;48.918;9.438;2022-07-23T16:17:04;30.80;50.70
3705;DHT22;1868;48.918;9.438;2022-07-23T16:19:33;30.80;50.80
3705;DHT22;1868;48.918;9.438;2022-07-23T16:22:02;30.60;51.10
3705;DHT22;1868;48.918;9.438;2022-07-23T16:24:31;30.30;51.70
3705;DHT22;1868;48.918;9.438;2022-07-23T16:27:02;30.20;52.60
3705;DHT22;1868;48.918;9.438;2022-07-23T16:29:33;30.20;53.10